CRN1007 TJRV-TJVQ
Flight info
| Callsign | CRN1007 |
|---|---|
| Flight time | 0h 8m |
| Altitude | 1500 |
| Route | 181518N0653741W 181415N0653647W DCT 180917N0653239W 180822N0653124W DCT 180756N0653049W |
| Aircraft | C402/L-SDFR/C |
Departure
| Time | 2026-04-24 20:08 |
|---|---|
| Airport | José Aponte de la Torre Airport (TJRV) |
Arrival
| Time | 2026-04-24 20:16 |
|---|---|
| Airport | Antonio Rivera Rodriguez Airport (TJVQ) |
| Time | Latitude | Longitude | Altitude | Speed | Heading |
|---|---|---|---|---|---|
| 2026-04-24 20:04 | 18.24096 | -65.65072 | 31 ft | 0 kts | 121° |
| 2026-04-24 20:06 | 18.24087 | -65.65058 | 34 ft | 7 kts | 127° |
| 2026-04-24 20:06 | 18.24103 | -65.64940 | 33 ft | 34 kts | 53° |
| 2026-04-24 20:07 | 18.24252 | -65.64729 | 29 ft | 75 kts | 53° |
| 2026-04-24 20:07 | 18.24787 | -65.63940 | 232 ft | 109 kts | 57° |
| 2026-04-24 20:07 | 18.25294 | -65.63157 | 201 ft | 144 kts | 58° |
| 2026-04-24 20:07 | 18.25877 | -65.62257 | 418 ft | 138 kts | 59° |
| 2026-04-24 20:08 | 18.26442 | -65.61451 | 951 ft | 147 kts | 57° |
| 2026-04-24 20:08 | 18.27071 | -65.60547 | 1342 ft | 154 kts | 57° |
| 2026-04-24 20:08 | 18.27745 | -65.59557 | 1258 ft | 183 kts | 57° |
| 2026-04-24 20:08 | 18.28157 | -65.58510 | 1510 ft | 145 kts | 100° |
| 2026-04-24 20:09 | 18.27611 | -65.57536 | 1573 ft | 171 kts | 136° |
| 2026-04-24 20:09 | 18.26491 | -65.56965 | 1584 ft | 190 kts | 168° |
| 2026-04-24 20:09 | 18.25136 | -65.57095 | 1587 ft | 203 kts | 198° |
| 2026-04-24 20:09 | 18.23967 | -65.57938 | 1593 ft | 213 kts | 226° |
| 2026-04-24 20:10 | 18.23265 | -65.59351 | 1607 ft | 220 kts | 253° |
| 2026-04-24 20:10 | 18.22617 | -65.60755 | 1586 ft | 218 kts | 223° |
| 2026-04-24 20:10 | 18.21296 | -65.61426 | 1581 ft | 213 kts | 184° |
| 2026-04-24 20:10 | 18.19920 | -65.61064 | 1581 ft | 206 kts | 144° |
| 2026-04-24 20:11 | 18.19123 | -65.59856 | 1589 ft | 205 kts | 107° |
| 2026-04-24 20:11 | 18.18803 | -65.58405 | 1597 ft | 201 kts | 104° |
| 2026-04-24 20:11 | 18.18348 | -65.57041 | 1598 ft | 197 kts | 117° |
| 2026-04-24 20:11 | 18.17604 | -65.55845 | 1598 ft | 195 kts | 127° |
| 2026-04-24 20:12 | 18.16763 | -65.54732 | 1597 ft | 194 kts | 128° |
| 2026-04-24 20:12 | 18.15943 | -65.53609 | 1593 ft | 193 kts | 126° |
| 2026-04-24 20:12 | 18.15189 | -65.52447 | 1587 ft | 192 kts | 117° |
| 2026-04-24 20:12 | 18.14704 | -65.51147 | 1628 ft | 187 kts | 115° |
| 2026-04-24 20:13 | 18.13854 | -65.50237 | 1643 ft | 169 kts | 154° |
| 2026-04-24 20:13 | 18.12727 | -65.50200 | 1311 ft | 169 kts | 195° |
| 2026-04-24 20:13 | 18.11684 | -65.50734 | 1065 ft | 163 kts | 208° |
| 2026-04-24 20:13 | 18.10957 | -65.51338 | 917 ft | 158 kts | 225° |
| 2026-04-24 20:14 | 18.10483 | -65.51945 | 642 ft | 161 kts | 232° |
| 2026-04-24 20:14 | 18.10431 | -65.52937 | 1010 ft | 139 kts | 302° |
| 2026-04-24 20:14 | 18.11204 | -65.53388 | 1051 ft | 125 kts | 6° |
| 2026-04-24 20:15 | 18.12016 | -65.53117 | 1000 ft | 123 kts | 35° |
| 2026-04-24 20:15 | 18.12553 | -65.52434 | 858 ft | 130 kts | 65° |
| 2026-04-24 20:15 | 18.12918 | -65.51548 | 564 ft | 132 kts | 71° |
| 2026-04-24 20:15 | 18.13216 | -65.50665 | 323 ft | 123 kts | 77° |
| 2026-04-24 20:16 | 18.13379 | -65.49848 | 56 ft | 107 kts | 77° |
| 2026-04-24 20:16 | 18.13520 | -65.49209 | 24 ft | 69 kts | 81° |
| 2026-04-24 20:16 | 18.13556 | -65.49028 | 20 ft | 19 kts | 76° |
| 2026-04-24 20:16 | 18.13570 | -65.48872 | 16 ft | 23 kts | 124° |
| 2026-04-24 20:17 | 18.13522 | -65.48843 | 16 ft | 0 kts | 279° |